createdAt,value
2023-05-10T00:04:37.137Z,99530.25
2023-05-10T00:09:39.992Z,99524.47
2023-05-10T00:14:42.749Z,99520.78
2023-05-10T00:19:46.908Z,99518.81
2023-05-10T00:24:49.675Z,99511.69
2023-05-10T00:29:52.534Z,99519.47
2023-05-10T00:34:57.075Z,99510.88
2023-05-10T00:39:59.935Z,99501.91
2023-05-10T00:45:03.683Z,99501.69
2023-05-10T00:50:10.069Z,99503.25
2023-05-10T00:55:13.941Z,99491.25
2023-05-10T01:00:19.192Z,99496.53
2023-05-10T01:05:23.878Z,99501.09
2023-05-10T01:10:27.244Z,99495.34
2023-05-10T01:15:30.093Z,99486.41
2023-05-10T01:20:41.696Z,99491.97
2023-05-10T01:26:26.625Z,99480.66
2023-05-10T01:31:45.093Z,99487.41
2023-05-10T01:36:54.475Z,99486.06
2023-05-10T01:42:03.178Z,99489.44
2023-05-10T01:47:10.691Z,99491.97
2023-05-10T01:52:18.457Z,99492.13
2023-05-10T01:57:23.995Z,99488.22
2023-05-10T02:02:29.580Z,99477.63
2023-05-10T02:07:35.176Z,99482.34
2023-05-10T02:12:41.729Z,99480.19
2023-05-10T02:17:45.315Z,99486.91
2023-05-10T02:22:51.364Z,99486.50
2023-05-10T02:27:56.519Z,99495.94
2023-05-10T02:32:59.772Z,99506.56
2023-05-10T02:38:04.462Z,99508.16
2023-05-10T02:43:11.346Z,99507.44
2023-05-10T02:48:14.195Z,99507.81
2023-05-10T02:53:22.946Z,99502.91
2023-05-10T02:58:26.347Z,99502.97
2023-05-10T03:03:29.124Z,99505.38
2023-05-10T03:08:33.513Z,99505.38
2023-05-10T03:13:44.432Z,99511.13
2023-05-10T03:18:56.829Z,99512.81
2023-05-10T03:24:07.482Z,99514.81
2023-05-10T03:29:13.376Z,99516.38
2023-05-10T03:34:16.480Z,99507.13
2023-05-10T03:39:22.231Z,99517.22
2023-05-10T03:44:30.089Z,99523.78
2023-05-10T03:49:33.186Z,99526.28
2023-05-10T03:54:37.767Z,99526.28
2023-05-10T03:59:41.422Z,99527.59
2023-05-10T04:04:44.206Z,99540.56
2023-05-10T04:09:49.580Z,99537.31
2023-05-10T04:14:52.423Z,99538.22
2023-05-10T04:19:55.689Z,99540.50
2023-05-10T04:24:59.877Z,99541.38
2023-05-10T04:30:03.143Z,99548.91
2023-05-10T04:35:06.418Z,99552.22
2023-05-10T04:40:11.925Z,99559.72
2023-05-10T04:45:15.584Z,99567.78
2023-05-10T04:50:18.839Z,99577.59
2023-05-10T04:55:23.227Z,99584.72
2023-05-10T05:00:27.182Z,99588.81
2023-05-10T05:05:29.917Z,99598.44
2023-05-10T05:10:34.050Z,99602.59
2023-05-10T05:15:36.912Z,99608.50
2023-05-10T05:20:39.665Z,99616.94
2023-05-10T05:25:44.047Z,99624.41
2023-05-10T05:30:47.021Z,99627.19
2023-05-10T05:35:51.736Z,99635.13
2023-05-10T05:40:55.967Z,99646.13
2023-05-10T05:45:59.603Z,99653.66
2023-05-10T05:51:02.611Z,99657.72
2023-05-10T05:56:07.392Z,99660.47
2023-05-10T06:01:10.207Z,99669.47
2023-05-10T06:06:13.460Z,99672.16
2023-05-10T06:11:17.620Z,99681.13
2023-05-10T06:16:20.423Z,99693.97
2023-05-10T06:21:23.357Z,99705.03
2023-05-10T06:26:27.544Z,99710.19
2023-05-10T06:31:30.343Z,99712.28
2023-05-10T06:36:33.161Z,99713.25
2023-05-10T06:41:37.463Z,99719.34
2023-05-10T06:46:40.311Z,99731.44
2023-05-10T06:51:43.237Z,99736.53
2023-05-10T06:56:47.404Z,99739.81
2023-05-10T07:01:50.279Z,99740.66
2023-05-10T07:06:53.196Z,99746.91
2023-05-10T07:11:58.263Z,99756.03
2023-05-10T07:17:01.059Z,99749.84
2023-05-10T07:22:03.948Z,99760.88
2023-05-10T07:27:08.157Z,99756.88
2023-05-10T07:32:11.045Z,99758.72
2023-05-10T07:37:13.802Z,99771.63
2023-05-10T07:42:17.956Z,99769.75
2023-05-10T07:47:20.782Z,99771.72
2023-05-10T07:52:23.595Z,99779.88
2023-05-10T07:57:27.801Z,99774.34
2023-05-10T08:02:30.758Z,99780.69
2023-05-10T08:07:34.539Z,99784.75
2023-05-10T08:12:38.770Z,99789.19
2023-05-10T08:17:41.612Z,99790.88
2023-05-10T08:22:44.448Z,99793.00
2023-05-10T08:27:48.656Z,99797.13
2023-05-10T08:32:51.455Z,99801.72
2023-05-10T08:37:54.229Z,99807.56
2023-05-10T08:43:06.557Z,99809.63
2023-05-10T08:48:10.910Z,99816.75
2023-05-10T08:53:15.091Z,99817.81
2023-05-10T08:58:20.450Z,99811.31
2023-05-10T09:03:23.257Z,99815.19
2023-05-10T09:08:27.555Z,99821.47
2023-05-10T09:13:32.120Z,99832.94
2023-05-10T09:18:34.977Z,99837.25
2023-05-10T09:23:37.786Z,99838.63
2023-05-10T09:28:54.366Z,99845.03
2023-05-10T09:33:57.668Z,99856.28
2023-05-10T09:39:00.436Z,99862.84
2023-05-10T09:44:04.688Z,99864.56
2023-05-10T09:49:07.795Z,99863.47
2023-05-10T09:54:12.127Z,99869.75
2023-05-10T09:59:16.359Z,99864.91
2023-05-10T10:04:19.377Z,99863.50
2023-05-10T10:09:22.203Z,99850.75
2023-05-10T10:14:26.809Z,99867.81
2023-05-10T10:19:30.417Z,99856.50
2023-05-10T10:24:33.254Z,99850.03
2023-05-10T10:29:43.169Z,99853.88
2023-05-10T10:34:46.240Z,99842.31
2023-05-10T10:39:50.663Z,99847.25
2023-05-10T10:45:14.572Z,99847.38
2023-05-10T10:50:17.995Z,99850.69
2023-05-10T10:55:24.206Z,99852.88
2023-05-10T11:00:33.310Z,99841.63
2023-05-10T11:05:39.201Z,99846.84
2023-05-10T11:10:52.862Z,99844.03
2023-05-10T11:15:58.015Z,99838.91
2023-05-10T11:21:03.806Z,99848.47
2023-05-10T11:26:10.346Z,99842.03
2023-05-10T11:31:15.713Z,99848.38
2023-05-10T11:36:20.712Z,99852.47
2023-05-10T11:41:24.925Z,99847.50
2023-05-10T11:46:30.472Z,99842.75
2023-05-10T11:51:36.633Z,99834.72
2023-05-10T11:56:39.711Z,99843.72
2023-05-10T12:01:44.054Z,99857.28
2023-05-10T12:06:47.517Z,99857.09
2023-05-10T12:11:50.403Z,99859.81
2023-05-10T12:16:54.655Z,99864.09
2023-05-10T12:21:57.443Z,99872.75
2023-05-10T12:27:00.285Z,99882.50
2023-05-10T12:32:04.936Z,99884.72
2023-05-10T12:37:08.075Z,99889.00
2023-05-10T12:42:11.514Z,99885.59
2023-05-10T12:47:15.713Z,99895.25
2023-05-10T12:52:18.517Z,99894.31
2023-05-10T12:57:22.391Z,99905.00
2023-05-10T13:02:26.664Z,99913.22
2023-05-10T13:07:29.492Z,99897.13
2023-05-10T13:12:32.290Z,99898.25
2023-05-10T13:17:36.525Z,99897.59
2023-05-10T13:22:40.722Z,99899.16
2023-05-10T13:27:43.738Z,99898.97
2023-05-10T13:32:47.955Z,99906.56
2023-05-10T13:37:50.825Z,99901.00
2023-05-10T13:42:53.996Z,99906.41
2023-05-10T13:47:58.274Z,99915.13
2023-05-10T13:53:01.157Z,99930.59
2023-05-10T13:58:03.974Z,99949.91
2023-05-10T14:03:10.248Z,99943.28
2023-05-10T14:08:14.145Z,99953.84
2023-05-10T14:13:17.247Z,99953.59
2023-05-10T14:18:21.546Z,99966.03
2023-05-10T14:23:25.948Z,99978.66
2023-05-10T14:28:28.942Z,99971.06
2023-05-10T14:33:33.115Z,99964.00
2023-05-10T14:38:35.925Z,99960.38
2023-05-10T14:43:38.650Z,99958.13
2023-05-10T14:48:42.895Z,99963.72
2023-05-10T14:53:45.696Z,99953.03
2023-05-10T14:58:48.446Z,99962.72
2023-05-10T15:03:52.784Z,99958.91
2023-05-10T15:08:56.243Z,99963.91
2023-05-10T15:13:59.032Z,99970.25
2023-05-10T15:19:03.525Z,99967.50
2023-05-10T15:24:06.801Z,99966.31
2023-05-10T15:29:09.624Z,99967.00
2023-05-10T15:34:13.744Z,99963.78
2023-05-10T15:39:16.407Z,99965.13
2023-05-10T15:44:19.486Z,99978.88
2023-05-10T15:49:23.662Z,99986.31
2023-05-10T15:54:26.818Z,100003.34
2023-05-10T15:59:29.671Z,100012.53
2023-05-10T16:04:33.800Z,100017.28
2023-05-10T16:09:36.591Z,100013.88
2023-05-10T16:14:39.426Z,100025.38
2023-05-10T16:19:43.638Z,100029.72
2023-05-10T16:24:46.670Z,100031.56
2023-05-10T16:29:49.646Z,100036.66
2023-05-10T16:34:54.272Z,100040.44
2023-05-10T16:39:57.041Z,100046.91
2023-05-10T16:45:07.127Z,100049.00
2023-05-10T16:50:11.851Z,100065.38
2023-05-10T16:55:14.834Z,100073.84
2023-05-10T17:00:20.580Z,100075.53
2023-05-10T17:05:24.837Z,100073.38
2023-05-10T17:10:27.664Z,100075.63
2023-05-10T17:15:30.704Z,100075.31
2023-05-10T17:20:35.001Z,100069.50
2023-05-10T17:25:37.890Z,100069.19
2023-05-10T17:30:40.718Z,100077.09
2023-05-10T17:35:47.369Z,100075.63
2023-05-10T17:40:50.145Z,100086.69
2023-05-10T17:45:53.008Z,100088.69
2023-05-10T17:50:57.420Z,100092.94
2023-05-10T17:56:01.538Z,100092.81
2023-05-10T18:01:04.399Z,100099.16
2023-05-10T18:06:08.666Z,100108.84
2023-05-10T18:11:11.511Z,100116.19
2023-05-10T18:16:14.279Z,100114.53
2023-05-10T18:21:18.860Z,100123.47
2023-05-10T18:26:21.681Z,100119.63
2023-05-10T18:31:24.786Z,100121.44
2023-05-10T18:36:29.494Z,100140.47
2023-05-10T18:41:32.282Z,100136.38
2023-05-10T18:46:35.652Z,100147.03
2023-05-10T18:51:40.103Z,100154.13
2023-05-10T18:56:45.058Z,100154.94
2023-05-10T19:01:49.560Z,100166.28
2023-05-10T19:06:55.852Z,100172.41
2023-05-10T19:11:58.762Z,100174.59
2023-05-10T19:17:01.553Z,100178.75
2023-05-10T19:22:05.770Z,100180.72
2023-05-10T19:27:09.093Z,100194.94
2023-05-10T19:32:12.084Z,100189.25
2023-05-10T19:37:16.261Z,100193.66
2023-05-10T19:42:19.036Z,100180.00
2023-05-10T19:47:21.824Z,100186.56
2023-05-10T19:52:26.023Z,100185.97
2023-05-10T19:57:28.871Z,100188.22
2023-05-10T20:02:31.647Z,100185.06
2023-05-10T20:07:35.811Z,100191.47
2023-05-10T20:12:38.683Z,100191.59
2023-05-10T20:17:41.666Z,100185.81
2023-05-10T20:22:45.857Z,100188.78
2023-05-10T20:27:50.748Z,100179.00
2023-05-10T20:32:53.592Z,100186.56
2023-05-10T20:37:57.790Z,100176.19
2023-05-10T20:43:00.602Z,100180.69
2023-05-10T20:48:03.677Z,100173.63
2023-05-10T20:53:07.821Z,100181.88
2023-05-10T20:58:10.585Z,100172.22
2023-05-10T21:03:15.096Z,100177.47
2023-05-10T21:08:19.332Z,100182.00
2023-05-10T21:13:22.175Z,100195.78
2023-05-10T21:18:25.185Z,100197.84
2023-05-10T21:23:29.392Z,100195.31
2023-05-10T21:28:32.160Z,100194.75
2023-05-10T21:33:35.297Z,100202.84
2023-05-10T21:38:39.431Z,100192.19
2023-05-10T21:43:42.219Z,100190.47
2023-05-10T21:48:45.024Z,100186.81
2023-05-10T21:53:49.415Z,100192.75
2023-05-10T21:58:52.172Z,100195.16
2023-05-10T22:03:54.944Z,100195.47
2023-05-10T22:08:59.065Z,100198.72
2023-05-10T22:14:01.815Z,100195.06
2023-05-10T22:19:04.724Z,100202.97
2023-05-10T22:24:09.071Z,100207.38
2023-05-10T22:29:11.934Z,100207.53
2023-05-10T22:34:14.707Z,100214.06
2023-05-10T22:39:18.819Z,100221.28
2023-05-10T22:44:21.919Z,100227.66
2023-05-10T22:49:24.708Z,100223.09
2023-05-10T22:54:28.888Z,100221.28
2023-05-10T22:59:31.865Z,100231.06
2023-05-10T23:04:34.699Z,100232.34
2023-05-10T23:09:38.921Z,100232.75
2023-05-10T23:14:42.340Z,100237.00
2023-05-10T23:19:45.162Z,100238.03
2023-05-10T23:24:49.254Z,100235.88
2023-05-10T23:29:55.450Z,100240.81
2023-05-10T23:34:58.367Z,100237.75
2023-05-10T23:40:03.069Z,100242.69
2023-05-10T23:45:06.644Z,100238.28
2023-05-10T23:50:10.482Z,100236.88
2023-05-10T23:55:14.841Z,100242.25
